createdAt,value
2022-08-30T00:02:52.501Z,97.31
2022-08-30T00:07:58.298Z,98.15
2022-08-30T00:13:01.905Z,97.50
2022-08-30T00:18:04.659Z,97.77
2022-08-30T00:23:08.838Z,98.52
2022-08-30T00:28:11.972Z,98.28
2022-08-30T00:33:16.082Z,97.66
2022-08-30T00:38:20.180Z,98.24
2022-08-30T00:43:29.520Z,98.82
2022-08-30T00:48:32.358Z,98.73
2022-08-30T00:53:39.914Z,100.00
2022-08-30T00:58:46.815Z,100.00
2022-08-30T01:03:50.761Z,100.00
2022-08-30T01:08:55.775Z,100.00
2022-08-30T01:14:00.249Z,99.93
2022-08-30T01:19:03.690Z,100.00
2022-08-30T01:24:10.459Z,100.00
2022-08-30T01:29:19.186Z,98.94
2022-08-30T01:34:21.922Z,99.07
2022-08-30T01:39:26.751Z,100.00
2022-08-30T01:44:29.433Z,100.00
2022-08-30T01:49:32.238Z,100.00
2022-08-30T01:54:38.618Z,100.00
2022-08-30T01:59:43.464Z,100.00
2022-08-30T02:04:46.208Z,100.00
2022-08-30T02:09:51.362Z,100.00
2022-08-30T02:14:54.586Z,99.74
2022-08-30T02:19:57.413Z,99.73
2022-08-30T02:25:01.914Z,100.00
2022-08-30T02:30:06.606Z,100.00
2022-08-30T02:35:10.431Z,100.00
2022-08-30T02:40:14.963Z,100.00
2022-08-30T02:45:17.672Z,100.00
2022-08-30T02:50:22.060Z,100.00
2022-08-30T02:55:28.612Z,100.00
2022-08-30T03:00:31.273Z,100.00
2022-08-30T03:05:34.342Z,100.00
2022-08-30T03:10:38.885Z,100.00
2022-08-30T03:15:42.259Z,100.00
2022-08-30T03:20:46.170Z,100.00
2022-08-30T03:25:58.459Z,100.00
2022-08-30T03:31:01.494Z,100.00
2022-08-30T03:36:05.464Z,100.00
2022-08-30T03:41:09.733Z,100.00
2022-08-30T03:46:12.767Z,100.00
2022-08-30T03:51:15.456Z,100.00
2022-08-30T03:56:19.945Z,100.00
2022-08-30T04:01:23.163Z,100.00
2022-08-30T04:06:27.303Z,100.00
2022-08-30T04:11:32.058Z,100.00
2022-08-30T04:16:35.017Z,100.00
2022-08-30T04:21:42.875Z,100.00
2022-08-30T04:26:47.524Z,100.00
2022-08-30T04:31:50.675Z,100.00
2022-08-30T04:36:53.688Z,100.00
2022-08-30T04:41:58.268Z,100.00
2022-08-30T04:47:00.968Z,100.00
2022-08-30T04:52:06.227Z,100.00
2022-08-30T04:57:10.286Z,100.00
2022-08-30T05:02:14.820Z,100.00
2022-08-30T05:07:18.037Z,100.00
2022-08-30T05:12:24.196Z,100.00
2022-08-30T05:17:27.614Z,100.00
2022-08-30T05:22:30.876Z,100.00
2022-08-30T05:27:37.841Z,100.00
2022-08-30T05:32:41.891Z,100.00
2022-08-30T05:37:44.804Z,100.00
2022-08-30T05:42:48.817Z,100.00
2022-08-30T05:47:51.459Z,100.00
2022-08-30T05:52:54.869Z,100.00
2022-08-30T05:58:00.602Z,100.00
2022-08-30T06:03:03.977Z,100.00
2022-08-30T06:08:06.705Z,100.00
2022-08-30T06:13:11.161Z,100.00
2022-08-30T06:18:14.524Z,100.00
2022-08-30T06:23:17.638Z,100.00
2022-08-30T06:28:21.735Z,100.00
2022-08-30T06:33:26.773Z,100.00
2022-08-30T06:38:29.361Z,100.00
2022-08-30T06:43:33.327Z,100.00
2022-08-30T06:48:36.136Z,100.00
2022-08-30T06:53:39.107Z,100.00
2022-08-30T06:58:45.650Z,100.00
2022-08-30T07:03:48.563Z,100.00
2022-08-30T07:08:56.386Z,100.00
2022-08-30T07:14:01.560Z,100.00
2022-08-30T07:19:05.198Z,100.00
2022-08-30T07:24:10.077Z,100.00
2022-08-30T07:29:14.282Z,100.00
2022-08-30T07:34:19.269Z,100.00
2022-08-30T07:39:23.308Z,100.00
2022-08-30T07:44:28.457Z,100.00
2022-08-30T07:49:31.577Z,100.00
2022-08-30T07:54:34.439Z,100.00
2022-08-30T07:59:38.495Z,100.00
2022-08-30T08:04:41.194Z,100.00
2022-08-30T08:09:44.016Z,100.00
2022-08-30T08:14:48.055Z,100.00
2022-08-30T08:19:50.729Z,99.35
2022-08-30T08:25:03.089Z,99.21
2022-08-30T08:30:09.536Z,98.78
2022-08-30T08:35:12.581Z,98.17
2022-08-30T08:40:18.283Z,97.61
2022-08-30T08:45:30.230Z,97.75
2022-08-30T08:50:33.858Z,98.15
2022-08-30T08:55:44.951Z,97.15
2022-08-30T09:00:49.071Z,96.80
2022-08-30T09:05:55.720Z,96.17
2022-08-30T09:11:02.444Z,95.35
2022-08-30T09:16:07.135Z,95.12
2022-08-30T09:21:25.167Z,93.85
2022-08-30T09:26:32.689Z,92.42
2022-08-30T09:31:48.753Z,91.75
2022-08-30T09:36:53.826Z,90.88
2022-08-30T09:42:13.626Z,91.44
2022-08-30T09:47:24.657Z,90.11
2022-08-30T09:52:39.796Z,89.34
2022-08-30T09:57:55.782Z,88.40
2022-08-30T10:03:11.262Z,87.40
2022-08-30T10:08:25.270Z,86.02
2022-08-30T10:13:47.740Z,86.86
2022-08-30T10:19:06.200Z,85.88
2022-08-30T10:24:13.089Z,85.25
2022-08-30T10:29:29.480Z,85.19
2022-08-30T10:34:39.831Z,85.84
2022-08-30T10:39:46.643Z,84.82
2022-08-30T10:44:55.903Z,84.10
2022-08-30T10:50:08.898Z,83.20
2022-08-30T10:55:16.684Z,82.14
2022-08-30T11:00:27.511Z,81.83
2022-08-30T11:05:47.565Z,81.54
2022-08-30T11:11:02.599Z,82.16
2022-08-30T11:16:08.290Z,81.38
2022-08-30T11:21:25.739Z,79.93
2022-08-30T11:26:57.080Z,77.78
2022-08-30T11:32:02.039Z,77.45
2022-08-30T11:37:09.851Z,77.36
2022-08-30T11:42:29.384Z,76.21
2022-08-30T11:47:44.696Z,74.39
2022-08-30T11:53:00.735Z,74.16
2022-08-30T11:58:19.204Z,74.16
2022-08-30T12:03:35.044Z,73.36
2022-08-30T12:08:57.951Z,72.22
2022-08-30T12:14:09.232Z,73.59
2022-08-30T12:19:17.399Z,73.42
2022-08-30T12:24:26.967Z,73.06
2022-08-30T12:29:34.226Z,71.52
2022-08-30T12:34:52.725Z,72.14
2022-08-30T12:40:06.502Z,71.91
2022-08-30T12:45:13.337Z,68.18
2022-08-30T12:50:20.267Z,67.42
2022-08-30T12:55:27.493Z,68.00
2022-08-30T13:00:32.857Z,66.73
2022-08-30T13:05:48.053Z,67.22
2022-08-30T13:11:01.524Z,67.18
2022-08-30T13:16:12.277Z,66.88
2022-08-30T13:21:25.403Z,64.73
2022-08-30T13:26:32.904Z,64.41
2022-08-30T13:31:36.873Z,65.65
2022-08-30T13:36:46.916Z,63.94
2022-08-30T13:41:52.211Z,62.71
2022-08-30T13:47:32.149Z,63.22
2022-08-30T13:52:24.388Z,61.47
2022-08-30T14:02:55.895Z,62.46
2022-08-30T14:08:00.459Z,62.47
2022-08-30T14:13:08.982Z,62.68
2022-08-30T14:18:17.183Z,63.02
2022-08-30T14:23:20.581Z,62.38
2022-08-30T14:28:25.909Z,62.93
2022-08-30T14:33:29.873Z,62.34
2022-08-30T14:38:32.540Z,61.56
2022-08-30T14:43:37.690Z,61.37
2022-08-30T14:48:41.582Z,61.09
2022-08-30T14:53:46.972Z,61.23
2022-08-30T14:58:53.009Z,67.29
2022-08-30T15:03:59.139Z,64.91
2022-08-30T15:09:03.182Z,64.27
2022-08-30T15:14:10.110Z,63.24
2022-08-30T15:19:18.638Z,65.24
2022-08-30T15:24:27.483Z,66.08
2022-08-30T15:29:34.266Z,65.04
2022-08-30T15:34:38.047Z,65.08
2022-08-30T15:39:40.874Z,63.97
2022-08-30T15:44:44.985Z,63.97
2022-08-30T15:49:54.494Z,64.87
2022-08-30T15:54:57.762Z,63.86
2022-08-30T16:00:01.956Z,64.24
2022-08-30T16:05:11.633Z,64.79
2022-08-30T16:10:15.119Z,64.21
2022-08-30T16:15:19.282Z,64.34
2022-08-30T16:20:23.670Z,64.77
2022-08-30T16:25:26.545Z,64.53
2022-08-30T16:30:48.349Z,64.95
2022-08-30T16:35:58.050Z,65.72
2022-08-30T16:41:05.031Z,65.64
2022-08-30T16:46:11.989Z,67.56
2022-08-30T16:51:16.418Z,68.73
2022-08-30T16:56:21.258Z,69.74
2022-08-30T17:01:25.613Z,71.38
2022-08-30T17:06:28.940Z,72.97
2022-08-30T17:11:31.745Z,69.06
2022-08-30T17:16:38.464Z,72.45
2022-08-30T17:21:45.334Z,68.13
2022-08-30T17:26:48.257Z,68.66
2022-08-30T17:31:52.545Z,66.94
2022-08-30T17:36:58.145Z,67.76
2022-08-30T17:42:06.364Z,66.51
2022-08-30T17:47:11.743Z,66.98
2022-08-30T17:52:14.668Z,66.77
2022-08-30T17:57:18.117Z,67.59
2022-08-30T18:02:22.749Z,67.72
2022-08-30T18:07:32.841Z,68.12
2022-08-30T18:12:35.699Z,68.74
2022-08-30T18:17:42.981Z,68.67
2022-08-30T18:22:46.761Z,69.01
2022-08-30T18:27:57.181Z,69.43
2022-08-30T18:33:14.493Z,69.11
2022-08-30T18:38:18.037Z,69.69
2022-08-30T18:43:30.654Z,69.98
2022-08-30T18:48:35.920Z,70.09
2022-08-30T18:53:39.789Z,70.17
2022-08-30T18:58:44.613Z,69.72
2022-08-30T19:03:49.397Z,70.28
2022-08-30T19:08:52.279Z,70.87
2022-08-30T19:13:57.354Z,71.65
2022-08-30T19:19:02.782Z,71.44
2022-08-30T19:24:06.179Z,71.87
2022-08-30T19:29:11.114Z,72.09
2022-08-30T19:34:17.688Z,72.30
2022-08-30T19:39:20.512Z,72.31
2022-08-30T19:44:24.987Z,73.21
2022-08-30T19:49:29.568Z,73.61
2022-08-30T19:54:37.592Z,73.58
2022-08-30T19:59:40.436Z,73.75
2022-08-30T20:04:44.442Z,73.61
2022-08-30T20:09:47.867Z,74.09
2022-08-30T20:14:53.597Z,74.22
2022-08-30T20:20:02.700Z,74.12
2022-08-30T20:25:10.909Z,75.13
2022-08-30T20:30:17.178Z,74.97
2022-08-30T20:35:23.633Z,75.43
2022-08-30T20:40:26.427Z,75.83
2022-08-30T20:45:31.067Z,75.61
2022-08-30T20:50:35.353Z,75.57
2022-08-30T20:55:42.131Z,75.71
2022-08-30T21:00:49.838Z,75.67
2022-08-30T21:05:58.941Z,75.28
2022-08-30T21:11:02.071Z,75.39
2022-08-30T21:16:06.182Z,74.31
2022-08-30T21:21:12.393Z,75.54
2022-08-30T21:26:15.597Z,75.46
2022-08-30T21:31:21.060Z,76.20
2022-08-30T21:36:45.562Z,76.11
2022-08-30T21:41:49.626Z,75.93
2022-08-30T21:46:53.565Z,76.78
2022-08-30T21:51:57.989Z,76.02
2022-08-30T21:57:04.832Z,75.97
2022-08-30T22:02:07.572Z,75.93
2022-08-30T22:07:11.859Z,77.40
2022-08-30T22:12:14.868Z,77.33
2022-08-30T22:17:18.819Z,77.65
2022-08-30T22:22:22.853Z,77.12
2022-08-30T22:27:25.548Z,77.22
2022-08-30T22:32:28.592Z,77.15
2022-08-30T22:37:33.908Z,77.83
2022-08-30T22:42:36.874Z,78.11
2022-08-30T22:47:39.530Z,78.18
2022-08-30T22:52:43.986Z,78.23
2022-08-30T22:57:46.668Z,79.85
2022-08-30T23:03:00.015Z,80.14
2022-08-30T23:08:06.911Z,80.60
2022-08-30T23:13:09.936Z,79.98
2022-08-30T23:18:12.716Z,80.93
2022-08-30T23:23:34.679Z,81.69
2022-08-30T23:28:54.812Z,81.83
2022-08-30T23:34:15.971Z,82.44
2022-08-30T23:39:37.455Z,82.03
2022-08-30T23:44:58.047Z,84.53
2022-08-30T23:50:18.416Z,84.42
2022-08-30T23:55:40.079Z,84.67
